createdAt,value
2019-05-25T00:02:16.508Z,99.90
2019-05-25T00:04:45.098Z,99.90
2019-05-25T00:07:13.662Z,99.90
2019-05-25T00:09:42.116Z,99.90
2019-05-25T00:12:10.012Z,99.90
2019-05-25T00:14:38.026Z,99.90
2019-05-25T00:17:06.414Z,99.90
2019-05-25T00:19:34.334Z,99.90
2019-05-25T00:22:02.416Z,99.90
2019-05-25T00:24:31.083Z,99.90
2019-05-25T00:26:59.164Z,99.90
2019-05-25T00:29:27.074Z,99.90
2019-05-25T00:31:55.103Z,99.90
2019-05-25T00:34:23.509Z,99.90
2019-05-25T00:36:51.687Z,99.90
2019-05-25T00:39:19.891Z,99.90
2019-05-25T00:41:47.995Z,99.90
2019-05-25T00:44:16.004Z,99.90
2019-05-25T00:46:43.919Z,99.90
2019-05-25T00:49:12.123Z,99.90
2019-05-25T00:51:40.231Z,99.90
2019-05-25T00:54:08.318Z,99.90
2019-05-25T00:56:36.347Z,99.90
2019-05-25T00:59:04.760Z,99.90
2019-05-25T01:01:32.711Z,99.90
2019-05-25T01:04:00.559Z,99.90
2019-05-25T01:06:28.562Z,99.90
2019-05-25T01:08:56.427Z,99.90
2019-05-25T01:11:25.334Z,99.90
2019-05-25T01:13:53.953Z,99.90
2019-05-25T01:16:22.486Z,99.90
2019-05-25T01:18:50.979Z,99.90
2019-05-25T01:21:19.509Z,99.90
2019-05-25T01:23:47.819Z,99.90
2019-05-25T01:26:16.585Z,99.90
2019-05-25T01:28:44.932Z,99.90
2019-05-25T01:31:12.911Z,99.90
2019-05-25T01:33:40.887Z,99.90
2019-05-25T01:36:08.824Z,99.90
2019-05-25T01:38:37.415Z,99.90
2019-05-25T01:41:05.388Z,99.90
2019-05-25T01:43:33.743Z,99.90
2019-05-25T01:46:01.778Z,99.90
2019-05-25T01:48:29.732Z,99.90
2019-05-25T01:50:57.639Z,99.90
2019-05-25T01:53:25.503Z,99.90
2019-05-25T01:55:53.580Z,99.90
2019-05-25T01:58:21.406Z,99.90
2019-05-25T02:00:49.277Z,99.90
2019-05-25T02:03:17.221Z,99.90
2019-05-25T02:05:45.127Z,99.90
2019-05-25T02:08:13.361Z,99.90
2019-05-25T02:10:41.359Z,99.90
2019-05-25T02:13:09.319Z,99.90
2019-05-25T02:15:37.263Z,99.90
2019-05-25T02:18:05.201Z,99.90
2019-05-25T02:20:33.287Z,99.90
2019-05-25T02:23:01.124Z,99.90
2019-05-25T02:25:29.071Z,99.90
2019-05-25T02:27:57.171Z,99.90
2019-05-25T02:30:26.550Z,99.90
2019-05-25T02:32:54.500Z,99.90
2019-05-25T02:35:26.764Z,99.90
2019-05-25T02:37:55.511Z,99.90
2019-05-25T02:40:23.829Z,99.90
2019-05-25T02:42:51.866Z,99.90
2019-05-25T02:45:19.959Z,99.90
2019-05-25T02:47:49.416Z,99.90
2019-05-25T02:50:18.419Z,99.90
2019-05-25T02:52:46.499Z,99.90
2019-05-25T02:55:14.814Z,99.90
2019-05-25T02:57:43.022Z,99.90
2019-05-25T03:00:11.517Z,99.90
2019-05-25T03:02:39.462Z,99.90
2019-05-25T03:05:07.603Z,99.90
2019-05-25T03:07:35.932Z,99.90
2019-05-25T03:10:04.943Z,99.90
2019-05-25T03:12:33.139Z,99.90
2019-05-25T03:15:01.163Z,99.90
2019-05-25T03:17:29.225Z,99.90
2019-05-25T03:19:57.393Z,99.90
2019-05-25T03:22:25.462Z,99.90
2019-05-25T03:24:53.457Z,99.90
2019-05-25T03:27:21.534Z,99.90
2019-05-25T03:29:49.528Z,99.90
2019-05-25T03:32:20.482Z,99.90
2019-05-25T03:34:48.564Z,99.90
2019-05-25T03:37:16.596Z,99.90
2019-05-25T03:39:44.551Z,99.90
2019-05-25T03:42:12.464Z,99.90
2019-05-25T03:44:40.335Z,99.90
2019-05-25T03:47:08.291Z,99.90
2019-05-25T03:49:37.112Z,99.90
2019-05-25T03:52:05.172Z,99.90
2019-05-25T03:54:33.078Z,99.90
2019-05-25T03:57:01.071Z,99.90
2019-05-25T03:59:28.992Z,99.90
2019-05-25T04:01:56.928Z,99.90
2019-05-25T04:04:24.898Z,99.90
2019-05-25T04:06:52.756Z,99.90
2019-05-25T04:09:21.022Z,99.90
2019-05-25T04:11:49.011Z,99.90
2019-05-25T04:14:16.833Z,99.90
2019-05-25T04:16:44.818Z,99.90
2019-05-25T04:19:12.700Z,99.90
2019-05-25T04:21:40.550Z,99.90
2019-05-25T04:24:14.574Z,99.90
2019-05-25T04:26:42.499Z,99.90
2019-05-25T04:29:10.716Z,99.90
2019-05-25T04:31:38.654Z,99.90
2019-05-25T04:34:07.110Z,99.90
2019-05-25T04:36:36.390Z,99.90
2019-05-25T04:39:06.689Z,99.90
2019-05-25T04:41:36.434Z,99.90
2019-05-25T04:44:04.392Z,99.90
2019-05-25T04:46:33.916Z,99.90
2019-05-25T04:49:01.810Z,99.90
2019-05-25T04:51:29.692Z,99.90
2019-05-25T04:53:57.686Z,99.90
2019-05-25T04:56:39.079Z,99.90
2019-05-25T04:58:55.575Z,99.90
2019-05-25T05:01:23.543Z,99.90
2019-05-25T05:03:51.586Z,99.90
2019-05-25T05:06:19.491Z,99.90
2019-05-25T05:08:47.661Z,99.90
2019-05-25T05:11:16.166Z,99.90
2019-05-25T05:13:44.207Z,99.90
2019-05-25T05:16:12.381Z,99.90
2019-05-25T05:18:40.541Z,99.90
2019-05-25T05:21:08.539Z,99.90
2019-05-25T05:23:38.655Z,99.90
2019-05-25T05:26:06.964Z,99.90
2019-05-25T05:28:34.821Z,99.90
2019-05-25T05:31:02.785Z,99.90
2019-05-25T05:33:30.634Z,99.90
2019-05-25T05:36:00.043Z,99.90
2019-05-25T05:38:29.592Z,99.90
2019-05-25T05:40:59.247Z,99.90
2019-05-25T05:43:29.035Z,99.90
2019-05-25T05:45:58.201Z,99.90
2019-05-25T05:48:27.582Z,99.90
2019-05-25T05:50:59.817Z,93.10
2019-05-25T05:53:27.739Z,86.60
2019-05-25T05:55:55.691Z,85.20
2019-05-25T05:58:23.865Z,83.90
2019-05-25T06:00:53.878Z,85.30
2019-05-25T06:03:21.862Z,86.70
2019-05-25T06:05:49.719Z,77.90
2019-05-25T06:08:18.095Z,72.70
2019-05-25T06:10:46.041Z,71.50
2019-05-25T06:13:13.992Z,76.30
2019-05-25T06:15:41.825Z,80.70
2019-05-25T06:18:09.859Z,78.40
2019-05-25T06:20:38.208Z,78.50
2019-05-25T06:23:08.642Z,79.40
2019-05-25T06:25:36.033Z,79.50
2019-05-25T06:28:03.934Z,78.40
2019-05-25T06:30:32.038Z,78.60
2019-05-25T06:33:00.309Z,76.20
2019-05-25T06:35:28.604Z,76.70
2019-05-25T06:37:56.523Z,85.50
2019-05-25T06:40:24.563Z,93.40
2019-05-25T06:42:52.471Z,95.90
2019-05-25T06:45:20.944Z,95.40
2019-05-25T06:47:48.866Z,85.50
2019-05-25T06:50:16.870Z,72.20
2019-05-25T06:52:44.789Z,76.20
2019-05-25T06:55:13.178Z,73.90
2019-05-25T06:57:43.521Z,69.30
2019-05-25T07:00:13.026Z,72.50
2019-05-25T07:02:42.089Z,73.90
2019-05-25T07:05:11.175Z,70.00
2019-05-25T07:07:40.263Z,62.20
2019-05-25T07:10:08.840Z,65.50
2019-05-25T07:12:37.150Z,70.40
2019-05-25T07:15:06.037Z,81.90
2019-05-25T07:17:34.010Z,88.80
2019-05-25T07:20:02.287Z,92.70
2019-05-25T07:22:30.864Z,87.00
2019-05-25T07:24:58.818Z,85.20
2019-05-25T07:27:26.776Z,80.20
2019-05-25T07:29:54.856Z,79.60
2019-05-25T07:32:22.487Z,80.30
2019-05-25T07:34:50.355Z,83.70
2019-05-25T07:37:21.068Z,81.30
2019-05-25T07:39:49.215Z,82.00
2019-05-25T07:42:19.952Z,82.00
2019-05-25T07:44:47.163Z,79.60
2019-05-25T07:47:15.321Z,84.70
2019-05-25T07:49:43.267Z,81.50
2019-05-25T07:52:11.306Z,81.20
2019-05-25T07:54:40.168Z,80.10
2019-05-25T07:57:08.118Z,82.40
2019-05-25T07:59:36.214Z,84.40
2019-05-25T08:02:04.452Z,92.00
2019-05-25T08:04:32.996Z,98.20
2019-05-25T08:07:01.044Z,99.90
2019-05-25T08:09:29.089Z,99.90
2019-05-25T08:11:58.619Z,99.90
2019-05-25T08:14:27.208Z,99.90
2019-05-25T08:16:56.097Z,99.90
2019-05-25T08:19:24.138Z,98.90
2019-05-25T08:21:53.440Z,96.20
2019-05-25T08:24:24.548Z,94.40
2019-05-25T08:26:54.219Z,95.70
2019-05-25T08:29:22.605Z,93.30
2019-05-25T08:31:52.122Z,92.90
2019-05-25T08:34:21.368Z,90.40
2019-05-25T08:36:53.336Z,91.50
2019-05-25T08:39:21.727Z,80.60
2019-05-25T08:41:49.765Z,82.30
2019-05-25T08:44:17.986Z,76.50
2019-05-25T08:46:47.138Z,73.30
2019-05-25T08:49:17.818Z,76.60
2019-05-25T08:51:46.599Z,72.00
2019-05-25T08:54:15.913Z,65.90
2019-05-25T08:56:45.487Z,66.40
2019-05-25T08:59:14.557Z,67.20
2019-05-25T09:01:44.003Z,61.90
2019-05-25T09:04:13.210Z,59.50
2019-05-25T09:06:42.466Z,56.00
2019-05-25T09:09:11.012Z,59.50
2019-05-25T09:11:39.977Z,61.50
2019-05-25T09:14:08.835Z,60.80
2019-05-25T09:16:37.572Z,61.60
2019-05-25T09:19:06.126Z,63.40
2019-05-25T09:21:34.182Z,68.20
2019-05-25T09:24:03.552Z,71.90
2019-05-25T09:26:32.041Z,70.40
2019-05-25T09:29:04.425Z,68.20
2019-05-25T09:31:30.777Z,69.00
2019-05-25T09:33:59.072Z,69.30
2019-05-25T09:36:27.686Z,67.60
2019-05-25T09:38:55.683Z,66.70
2019-05-25T09:41:23.817Z,66.20
2019-05-25T09:43:52.314Z,68.70
2019-05-25T09:46:20.531Z,69.80
2019-05-25T09:48:48.681Z,65.90
2019-05-25T09:51:16.631Z,66.20
2019-05-25T09:53:44.843Z,63.70
2019-05-25T09:56:13.014Z,63.30
2019-05-25T09:58:41.429Z,63.90
2019-05-25T10:01:09.783Z,62.70
2019-05-25T10:03:39.346Z,61.20
2019-05-25T10:06:12.260Z,62.20
2019-05-25T10:08:38.962Z,59.60
2019-05-25T10:11:07.986Z,55.20
2019-05-25T10:13:36.799Z,56.10
2019-05-25T10:16:05.745Z,55.10
2019-05-25T10:18:34.885Z,60.80
2019-05-25T10:21:03.475Z,56.00
2019-05-25T10:23:32.195Z,56.80
2019-05-25T10:26:01.225Z,50.10
2019-05-25T10:28:30.384Z,50.20
2019-05-25T10:30:58.407Z,53.60
2019-05-25T10:33:32.855Z,50.00
2019-05-25T10:36:01.555Z,47.60
2019-05-25T10:38:33.569Z,51.20
2019-05-25T10:41:01.947Z,48.20
2019-05-25T10:43:30.220Z,44.70
2019-05-25T10:45:59.451Z,48.80
2019-05-25T10:48:28.434Z,48.40
2019-05-25T10:50:58.311Z,47.00
2019-05-25T10:53:26.767Z,44.60
2019-05-25T10:55:55.971Z,44.00
2019-05-25T10:58:29.184Z,44.40
2019-05-25T11:00:57.395Z,40.60
2019-05-25T11:03:25.599Z,41.60
2019-05-25T11:05:55.020Z,43.00
2019-05-25T11:08:23.068Z,40.40
2019-05-25T11:10:51.432Z,42.90
2019-05-25T11:13:19.484Z,44.50
2019-05-25T11:15:47.966Z,41.60
2019-05-25T11:18:16.108Z,42.90
2019-05-25T11:20:44.320Z,43.70
2019-05-25T11:23:12.275Z,45.10
2019-05-25T11:25:40.322Z,45.30
2019-05-25T11:28:08.610Z,42.20
2019-05-25T11:30:36.662Z,42.50
2019-05-25T11:33:04.986Z,42.30
2019-05-25T11:35:33.185Z,42.60
2019-05-25T11:38:03.326Z,43.00
2019-05-25T11:40:32.261Z,43.10
2019-05-25T11:43:04.702Z,39.60
2019-05-25T11:45:33.402Z,38.80
2019-05-25T11:48:01.913Z,37.60
2019-05-25T11:50:30.943Z,37.60
2019-05-25T11:53:05.444Z,36.30
2019-05-25T11:55:31.807Z,37.70
2019-05-25T11:58:00.741Z,40.20
2019-05-25T12:00:28.979Z,41.30
2019-05-25T12:02:57.225Z,41.10
2019-05-25T12:05:25.748Z,39.30
2019-05-25T12:07:54.259Z,37.40
2019-05-25T12:10:23.005Z,42.10
2019-05-25T12:12:51.074Z,40.20
2019-05-25T12:15:19.261Z,37.70
2019-05-25T12:17:47.300Z,36.80
2019-05-25T12:20:16.040Z,36.80
2019-05-25T12:22:43.955Z,36.20
2019-05-25T12:25:12.378Z,36.30
2019-05-25T12:27:40.926Z,36.90
2019-05-25T12:30:11.327Z,35.50
2019-05-25T12:32:39.600Z,38.30
2019-05-25T12:35:09.054Z,38.60
2019-05-25T12:37:37.403Z,38.10
2019-05-25T12:40:05.728Z,38.70
2019-05-25T12:42:33.872Z,39.30
2019-05-25T12:45:02.088Z,39.30
2019-05-25T12:47:30.314Z,38.70
2019-05-25T12:49:58.655Z,36.70
2019-05-25T12:52:27.356Z,35.00
2019-05-25T12:54:55.375Z,36.90
2019-05-25T12:57:24.231Z,35.50
2019-05-25T12:59:52.525Z,34.20
2019-05-25T13:02:20.785Z,34.00
2019-05-25T13:04:48.884Z,33.60
2019-05-25T13:07:17.736Z,32.60
2019-05-25T13:09:45.958Z,31.60
2019-05-25T13:12:16.477Z,30.00
2019-05-25T13:14:44.566Z,29.70
2019-05-25T13:17:12.813Z,30.60
2019-05-25T13:19:40.931Z,29.90
2019-05-25T13:22:09.734Z,31.10
2019-05-25T13:24:38.283Z,30.90
2019-05-25T13:27:07.583Z,27.90
2019-05-25T13:29:36.080Z,28.50
2019-05-25T13:32:04.434Z,28.40
2019-05-25T13:34:32.637Z,28.30
2019-05-25T13:37:01.855Z,28.50
2019-05-25T13:39:30.787Z,27.90
2019-05-25T13:41:58.805Z,27.90
2019-05-25T13:44:27.362Z,26.70
2019-05-25T13:46:56.489Z,27.20
2019-05-25T13:49:24.398Z,28.00
2019-05-25T13:51:52.837Z,28.20
2019-05-25T13:54:21.189Z,26.60
2019-05-25T13:56:49.526Z,26.90
2019-05-25T13:59:17.742Z,26.40
2019-05-25T14:01:45.876Z,25.70
2019-05-25T14:04:13.899Z,25.00
2019-05-25T14:06:42.646Z,23.50
2019-05-25T14:09:11.136Z,23.00
2019-05-25T14:11:39.427Z,23.80
2019-05-25T14:14:07.742Z,22.30
2019-05-25T14:16:35.978Z,21.20
2019-05-25T14:19:04.310Z,20.40
2019-05-25T14:21:32.484Z,21.20
2019-05-25T14:24:00.828Z,19.80
2019-05-25T14:26:29.406Z,20.10
2019-05-25T14:28:57.856Z,19.90
2019-05-25T14:31:26.079Z,20.10
2019-05-25T14:33:54.340Z,20.20
2019-05-25T14:36:22.447Z,19.30
2019-05-25T14:38:50.423Z,20.10
2019-05-25T14:41:18.669Z,18.90
2019-05-25T14:43:46.793Z,18.80
2019-05-25T14:46:27.508Z,18.90
2019-05-25T14:48:45.689Z,18.50
2019-05-25T14:51:14.423Z,18.00
2019-05-25T14:53:42.483Z,17.40
2019-05-25T14:56:10.512Z,17.20
2019-05-25T14:58:38.742Z,18.30
2019-05-25T15:01:06.839Z,18.40
2019-05-25T15:03:34.919Z,17.30
2019-05-25T15:06:02.931Z,16.90
2019-05-25T15:08:31.029Z,18.00
2019-05-25T15:10:58.996Z,17.60
2019-05-25T15:13:27.434Z,16.80
2019-05-25T15:15:55.697Z,17.60
2019-05-25T15:18:23.824Z,17.90
2019-05-25T15:20:51.939Z,16.40
2019-05-25T15:23:20.167Z,16.70
2019-05-25T15:25:48.414Z,16.80
2019-05-25T15:28:17.326Z,17.30
2019-05-25T15:30:45.319Z,15.80
2019-05-25T15:33:13.667Z,15.80
2019-05-25T15:35:42.502Z,16.20
2019-05-25T15:38:11.217Z,15.40
2019-05-25T15:40:39.490Z,16.60
2019-05-25T15:43:07.684Z,16.20
2019-05-25T15:45:35.964Z,15.90
2019-05-25T15:48:04.374Z,16.20
2019-05-25T15:50:33.761Z,16.80
2019-05-25T15:53:02.135Z,17.10
2019-05-25T15:55:30.711Z,17.20
2019-05-25T15:57:58.987Z,15.50
2019-05-25T16:00:46.407Z,15.20
2019-05-25T16:03:18.387Z,15.80
2019-05-25T16:05:47.811Z,16.70
2019-05-25T16:08:17.858Z,16.60
2019-05-25T16:10:46.619Z,16.70
2019-05-25T16:13:15.242Z,16.90
2019-05-25T16:15:43.504Z,16.40
2019-05-25T16:18:12.375Z,16.40
2019-05-25T16:20:40.567Z,17.30
2019-05-25T16:23:08.753Z,17.50
2019-05-25T16:25:37.078Z,17.00
2019-05-25T16:28:05.472Z,17.60
2019-05-25T16:30:33.534Z,17.60
2019-05-25T16:33:17.575Z,18.10
2019-05-25T16:35:32.397Z,17.80
2019-05-25T16:38:00.733Z,16.60
2019-05-25T16:40:29.454Z,16.80
2019-05-25T16:42:58.232Z,16.90
2019-05-25T16:45:26.440Z,16.40
2019-05-25T16:47:55.130Z,17.80
2019-05-25T16:50:23.277Z,16.90
2019-05-25T16:52:51.883Z,16.40
2019-05-25T16:55:20.327Z,16.60
2019-05-25T16:57:48.907Z,16.70
2019-05-25T17:00:27.339Z,17.30
2019-05-25T17:02:57.311Z,17.10
2019-05-25T17:05:27.352Z,17.00
2019-05-25T17:07:56.598Z,16.70
2019-05-25T17:10:25.224Z,17.00
2019-05-25T17:12:53.668Z,16.80
2019-05-25T17:15:22.066Z,17.10
2019-05-25T17:17:50.356Z,17.10
2019-05-25T17:20:18.882Z,17.30
2019-05-25T17:22:47.284Z,17.10
2019-05-25T17:25:16.316Z,17.30
2019-05-25T17:27:44.497Z,17.60
2019-05-25T17:30:15.351Z,17.80
2019-05-25T17:32:43.310Z,18.70
2019-05-25T17:35:11.593Z,17.30
2019-05-25T17:37:39.573Z,18.30
2019-05-25T17:40:07.967Z,17.90
2019-05-25T17:42:36.257Z,18.20
2019-05-25T17:45:05.936Z,18.20
2019-05-25T17:47:34.118Z,17.90
2019-05-25T17:50:02.264Z,18.80
2019-05-25T17:52:30.693Z,19.60
2019-05-25T17:54:58.628Z,20.20
2019-05-25T17:57:26.647Z,20.60
2019-05-25T17:59:54.734Z,20.10
2019-05-25T18:02:22.747Z,20.40
2019-05-25T18:04:50.841Z,20.50
2019-05-25T18:07:18.831Z,20.50
2019-05-25T18:09:47.621Z,21.50
2019-05-25T18:12:15.704Z,21.20
2019-05-25T18:14:44.153Z,21.30
2019-05-25T18:17:12.187Z,20.90
2019-05-25T18:19:40.286Z,21.30
2019-05-25T18:22:08.580Z,21.60
2019-05-25T18:24:36.659Z,21.60
2019-05-25T18:27:04.823Z,21.70
2019-05-25T18:29:34.530Z,21.80
2019-05-25T18:32:02.541Z,22.10
2019-05-25T18:34:30.677Z,22.30
2019-05-25T18:36:59.086Z,22.00
2019-05-25T18:39:27.298Z,22.50
2019-05-25T18:41:57.192Z,22.20
2019-05-25T18:44:25.352Z,22.40
2019-05-25T18:46:53.501Z,22.30
2019-05-25T18:49:21.562Z,22.40
2019-05-25T18:51:49.586Z,23.20
2019-05-25T18:54:18.303Z,24.20
2019-05-25T18:56:47.333Z,25.50
2019-05-25T18:59:15.445Z,25.80
2019-05-25T19:01:44.013Z,26.00
2019-05-25T19:04:12.156Z,26.40
2019-05-25T19:06:40.382Z,26.50
2019-05-25T19:09:10.486Z,27.00
2019-05-25T19:11:38.722Z,26.50
2019-05-25T19:14:07.285Z,27.50
2019-05-25T19:16:35.714Z,27.50
2019-05-25T19:19:03.960Z,28.00
2019-05-25T19:21:32.615Z,28.80
2019-05-25T19:24:00.778Z,30.30
2019-05-25T19:26:28.929Z,31.50
2019-05-25T19:28:57.007Z,33.30
2019-05-25T19:31:25.696Z,33.90
2019-05-25T19:33:53.866Z,34.00
2019-05-25T19:36:22.141Z,34.60
2019-05-25T19:38:50.285Z,35.20
2019-05-25T19:41:18.352Z,42.80
2019-05-25T19:43:47.572Z,53.90
2019-05-25T19:46:15.679Z,58.30
2019-05-25T19:48:43.849Z,58.80
2019-05-25T19:51:12.120Z,55.30
2019-05-25T19:53:40.578Z,55.60
2019-05-25T19:56:08.651Z,57.90
2019-05-25T19:58:36.802Z,59.70
2019-05-25T20:01:04.879Z,60.20
2019-05-25T20:03:32.866Z,60.90
2019-05-25T20:06:01.206Z,62.70
2019-05-25T20:08:29.517Z,67.40
2019-05-25T20:10:58.002Z,74.70
2019-05-25T20:13:26.125Z,73.60
2019-05-25T20:15:54.369Z,74.60
2019-05-25T20:18:22.420Z,81.30
2019-05-25T20:20:50.420Z,91.90
2019-05-25T20:23:18.511Z,93.60
2019-05-25T20:25:46.951Z,96.90
2019-05-25T20:28:14.954Z,99.90
2019-05-25T20:30:43.410Z,99.90
2019-05-25T20:33:11.415Z,99.90
2019-05-25T20:35:39.544Z,99.90
2019-05-25T20:38:07.584Z,99.90
2019-05-25T20:40:35.946Z,99.90
2019-05-25T20:43:03.996Z,99.90
2019-05-25T20:45:32.345Z,99.90
2019-05-25T20:48:00.847Z,99.90
2019-05-25T20:50:28.960Z,99.90
2019-05-25T20:52:56.997Z,99.90
2019-05-25T20:55:25.056Z,99.90
2019-05-25T20:57:53.120Z,99.90
2019-05-25T21:00:24.184Z,99.90
2019-05-25T21:03:05.275Z,99.90
2019-05-25T21:05:21.560Z,99.90
2019-05-25T21:07:50.014Z,99.90
2019-05-25T21:10:18.226Z,99.90
2019-05-25T21:12:46.435Z,99.90
2019-05-25T21:15:16.322Z,99.90
2019-05-25T21:17:44.393Z,99.90
2019-05-25T21:20:13.365Z,99.90
2019-05-25T21:22:41.310Z,99.90
2019-05-25T21:25:09.698Z,99.90
2019-05-25T21:27:37.856Z,99.90
2019-05-25T21:30:07.593Z,99.90
2019-05-25T21:32:35.615Z,99.90
2019-05-25T21:35:03.645Z,99.90
2019-05-25T21:37:32.081Z,99.90
2019-05-25T21:40:00.418Z,99.90
2019-05-25T21:42:28.468Z,99.90
2019-05-25T21:44:56.359Z,99.90
2019-05-25T21:47:24.517Z,99.90
2019-05-25T21:49:52.947Z,99.90
2019-05-25T21:52:20.961Z,99.90
2019-05-25T21:54:50.533Z,99.90
2019-05-25T21:57:18.465Z,99.90
2019-05-25T21:59:46.342Z,99.90
2019-05-25T22:02:14.794Z,99.90
2019-05-25T22:04:42.999Z,99.90
2019-05-25T22:07:11.129Z,99.90
2019-05-25T22:09:39.055Z,99.90
2019-05-25T22:12:07.214Z,99.90
2019-05-25T22:14:35.270Z,99.90
2019-05-25T22:17:03.882Z,99.90
2019-05-25T22:19:31.896Z,99.90
2019-05-25T22:22:02.516Z,99.90
2019-05-25T22:24:30.418Z,99.90
2019-05-25T22:26:58.293Z,99.90
2019-05-25T22:29:26.263Z,99.90
2019-05-25T22:31:54.372Z,99.90
2019-05-25T22:34:22.301Z,99.90
2019-05-25T22:36:50.243Z,99.90
2019-05-25T22:39:18.145Z,99.90
2019-05-25T22:41:46.162Z,99.90
2019-05-25T22:44:14.143Z,99.90
2019-05-25T22:46:42.370Z,99.90
2019-05-25T22:49:10.518Z,99.90
2019-05-25T22:51:38.882Z,99.90
2019-05-25T22:54:06.858Z,99.90
2019-05-25T22:56:34.997Z,99.90
2019-05-25T22:59:03.345Z,99.90
2019-05-25T23:01:31.567Z,99.90
2019-05-25T23:04:00.137Z,99.90
2019-05-25T23:06:28.171Z,99.90
2019-05-25T23:08:56.465Z,99.90
2019-05-25T23:11:24.488Z,99.90
2019-05-25T23:13:52.745Z,99.90
2019-05-25T23:16:20.722Z,99.90
2019-05-25T23:18:48.771Z,99.90
2019-05-25T23:21:16.666Z,99.90
2019-05-25T23:23:44.846Z,99.90
2019-05-25T23:26:12.915Z,99.90
2019-05-25T23:28:40.840Z,99.90
2019-05-25T23:31:08.865Z,99.90
2019-05-25T23:33:36.980Z,99.90
2019-05-25T23:36:04.929Z,99.90
2019-05-25T23:38:33.012Z,99.90
2019-05-25T23:41:03.354Z,99.90
2019-05-25T23:43:31.261Z,99.90
2019-05-25T23:45:59.686Z,99.90
2019-05-25T23:48:27.671Z,99.90
2019-05-25T23:50:55.605Z,99.90
2019-05-25T23:53:23.710Z,99.90
2019-05-25T23:55:51.992Z,99.90
2019-05-25T23:58:19.883Z,99.90
